sensor_id;sensor_type;location;lat;lon;timestamp;pressure;altitude;pressure_sealevel;temperature;humidity
21803;BME280;18591;47.080;22.214;2024-01-06T00:00:41;98917.56;;;9.60;55.45
21803;BME280;18591;47.080;22.214;2024-01-06T00:02:43;98905.31;;;9.54;55.29
21803;BME280;18591;47.080;22.214;2024-01-06T00:04:46;98909.53;;;9.60;54.86
21803;BME280;18591;47.080;22.214;2024-01-06T00:06:48;98908.00;;;9.54;55.05
21803;BME280;18591;47.080;22.214;2024-01-06T00:08:50;98900.75;;;9.56;54.77
21803;BME280;18591;47.080;22.214;2024-01-06T00:10:56;98890.03;;;9.56;54.68
21803;BME280;18591;47.080;22.214;2024-01-06T00:12:58;98902.78;;;9.51;54.66
21803;BME280;18591;47.080;22.214;2024-01-06T00:15:01;98901.69;;;9.35;55.27
21803;BME280;18591;47.080;22.214;2024-01-06T00:17:03;98895.88;;;9.46;54.87
21803;BME280;18591;47.080;22.214;2024-01-06T00:19:06;98892.97;;;9.50;54.43
21803;BME280;18591;47.080;22.214;2024-01-06T00:21:08;98894.59;;;9.54;54.17
21803;BME280;18591;47.080;22.214;2024-01-06T00:23:11;98886.34;;;9.59;54.04
21803;BME280;18591;47.080;22.214;2024-01-06T00:25:13;98884.19;;;9.67;53.96
21803;BME280;18591;47.080;22.214;2024-01-06T00:27:15;98883.03;;;9.73;53.77
21803;BME280;18591;47.080;22.214;2024-01-06T00:29:18;98883.31;;;9.67;53.97
21803;BME280;18591;47.080;22.214;2024-01-06T00:31:20;98878.00;;;9.65;53.84
21803;BME280;18591;47.080;22.214;2024-01-06T00:33:25;98876.34;;;9.63;54.13
21803;BME280;18591;47.080;22.214;2024-01-06T00:35:31;98883.22;;;9.68;53.83
21803;BME280;18591;47.080;22.214;2024-01-06T00:37:33;98869.16;;;9.63;53.37
21803;BME280;18591;47.080;22.214;2024-01-06T00:39:35;98874.19;;;9.71;53.50
21803;BME280;18591;47.080;22.214;2024-01-06T00:41:38;98870.25;;;9.59;53.44
21803;BME280;18591;47.080;22.214;2024-01-06T00:43:40;98880.91;;;9.60;53.25
21803;BME280;18591;47.080;22.214;2024-01-06T00:45:42;98873.59;;;9.64;52.88
21803;BME280;18591;47.080;22.214;2024-01-06T00:47:45;98881.50;;;9.67;53.52
21803;BME280;18591;47.080;22.214;2024-01-06T00:49:47;98883.53;;;9.62;53.33
21803;BME280;18591;47.080;22.214;2024-01-06T00:51:50;98872.31;;;9.73;53.12
21803;BME280;18591;47.080;22.214;2024-01-06T00:53:53;98875.94;;;9.72;53.58
21803;BME280;18591;47.080;22.214;2024-01-06T00:55:55;98879.44;;;9.74;53.74
21803;BME280;18591;47.080;22.214;2024-01-06T00:57:57;98872.59;;;9.67;53.90
21803;BME280;18591;47.080;22.214;2024-01-06T01:00:00;98867.63;;;9.57;53.65
21803;BME280;18591;47.080;22.214;2024-01-06T01:02:02;98868.09;;;9.67;53.18
21803;BME280;18591;47.080;22.214;2024-01-06T01:04:04;98862.69;;;9.69;52.84
21803;BME280;18591;47.080;22.214;2024-01-06T01:06:07;98862.78;;;9.66;52.90
21803;BME280;18591;47.080;22.214;2024-01-06T01:08:10;98867.03;;;9.71;52.70
21803;BME280;18591;47.080;22.214;2024-01-06T01:10:12;98854.19;;;9.78;52.60
21803;BME280;18591;47.080;22.214;2024-01-06T01:12:15;98856.31;;;9.71;52.36
21803;BME280;18591;47.080;22.214;2024-01-06T01:14:17;98848.38;;;9.68;52.22
21803;BME280;18591;47.080;22.214;2024-01-06T01:16:20;98840.72;;;9.79;52.42
21803;BME280;18591;47.080;22.214;2024-01-06T01:18:23;98832.06;;;9.73;51.89
21803;BME280;18591;47.080;22.214;2024-01-06T01:20:26;98843.41;;;9.79;51.75
21803;BME280;18591;47.080;22.214;2024-01-06T01:22:28;98835.50;;;9.76;51.61
21803;BME280;18591;47.080;22.214;2024-01-06T01:24:30;98830.78;;;9.81;51.24
21803;BME280;18591;47.080;22.214;2024-01-06T01:26:32;98827.09;;;9.84;51.25
21803;BME280;18591;47.080;22.214;2024-01-06T01:28:35;98823.16;;;9.91;52.56
21803;BME280;18591;47.080;22.214;2024-01-06T01:30:37;98820.47;;;9.91;53.91
21803;BME280;18591;47.080;22.214;2024-01-06T01:32:40;98817.75;;;9.93;54.54
21803;BME280;18591;47.080;22.214;2024-01-06T01:34:46;98817.50;;;9.78;54.51
21803;BME280;18591;47.080;22.214;2024-01-06T01:36:48;98813.31;;;9.92;53.03
21803;BME280;18591;47.080;22.214;2024-01-06T01:38:50;98812.59;;;9.88;52.11
21803;BME280;18591;47.080;22.214;2024-01-06T01:40:53;98815.47;;;9.84;51.96
21803;BME280;18591;47.080;22.214;2024-01-06T01:42:55;98812.38;;;9.93;51.79
21803;BME280;18591;47.080;22.214;2024-01-06T01:44:57;98805.69;;;10.01;51.36
21803;BME280;18591;47.080;22.214;2024-01-06T01:47:00;98804.56;;;10.07;51.63
21803;BME280;18591;47.080;22.214;2024-01-06T01:49:02;98808.25;;;10.05;51.67
21803;BME280;18591;47.080;22.214;2024-01-06T01:51:07;98806.69;;;9.99;50.95
21803;BME280;18591;47.080;22.214;2024-01-06T01:53:10;98797.94;;;9.95;50.44
21803;BME280;18591;47.080;22.214;2024-01-06T01:55:14;98785.13;;;10.02;50.34
21803;BME280;18591;47.080;22.214;2024-01-06T01:57:16;98778.28;;;9.95;50.17
21803;BME280;18591;47.080;22.214;2024-01-06T01:59:20;98788.94;;;9.96;50.47
21803;BME280;18591;47.080;22.214;2024-01-06T02:01:22;98778.84;;;10.01;50.57
21803;BME280;18591;47.080;22.214;2024-01-06T02:03:25;98779.75;;;10.02;49.96
21803;BME280;18591;47.080;22.214;2024-01-06T02:05:28;98784.38;;;9.98;49.85
21803;BME280;18591;47.080;22.214;2024-01-06T02:07:30;98782.91;;;9.91;50.54
21803;BME280;18591;47.080;22.214;2024-01-06T02:09:33;98789.19;;;9.92;50.16
21803;BME280;18591;47.080;22.214;2024-01-06T02:11:35;98769.28;;;9.96;50.71
21803;BME280;18591;47.080;22.214;2024-01-06T02:13:37;98780.53;;;9.85;51.89
21803;BME280;18591;47.080;22.214;2024-01-06T02:15:40;98777.06;;;9.83;52.11
21803;BME280;18591;47.080;22.214;2024-01-06T02:17:42;98764.22;;;9.90;51.86
21803;BME280;18591;47.080;22.214;2024-01-06T02:19:45;98764.22;;;9.90;51.46
21803;BME280;18591;47.080;22.214;2024-01-06T02:21:49;98755.22;;;9.91;50.27
21803;BME280;18591;47.080;22.214;2024-01-06T02:23:52;98753.19;;;9.96;49.89
21803;BME280;18591;47.080;22.214;2024-01-06T02:25:54;98751.25;;;9.99;50.00
21803;BME280;18591;47.080;22.214;2024-01-06T02:27:56;98757.16;;;10.06;50.15
21803;BME280;18591;47.080;22.214;2024-01-06T02:29:59;98747.41;;;10.05;49.58
21803;BME280;18591;47.080;22.214;2024-01-06T02:32:01;98746.28;;;10.09;50.26
21803;BME280;18591;47.080;22.214;2024-01-06T02:34:04;98747.88;;;10.13;49.98
21803;BME280;18591;47.080;22.214;2024-01-06T02:36:06;98742.50;;;10.13;49.99
21803;BME280;18591;47.080;22.214;2024-01-06T02:38:09;98745.34;;;10.10;49.87
21803;BME280;18591;47.080;22.214;2024-01-06T02:40:13;98740.84;;;10.11;49.98
21803;BME280;18591;47.080;22.214;2024-01-06T02:42:16;98735.78;;;10.05;50.18
21803;BME280;18591;47.080;22.214;2024-01-06T02:44:18;98734.69;;;10.09;50.01
21803;BME280;18591;47.080;22.214;2024-01-06T02:46:21;98730.34;;;10.06;50.47
21803;BME280;18591;47.080;22.214;2024-01-06T02:48:23;98730.28;;;10.08;50.42
21803;BME280;18591;47.080;22.214;2024-01-06T02:50:25;98722.28;;;10.06;50.41
21803;BME280;18591;47.080;22.214;2024-01-06T02:52:28;98721.63;;;10.01;50.84
21803;BME280;18591;47.080;22.214;2024-01-06T02:54:30;98722.50;;;10.01;50.53
21803;BME280;18591;47.080;22.214;2024-01-06T02:56:32;98717.28;;;9.98;50.76
21803;BME280;18591;47.080;22.214;2024-01-06T02:58:34;98718.16;;;9.99;50.96
21803;BME280;18591;47.080;22.214;2024-01-06T03:00:37;98712.56;;;10.03;50.76
21803;BME280;18591;47.080;22.214;2024-01-06T03:02:39;98709.81;;;10.05;50.65
21803;BME280;18591;47.080;22.214;2024-01-06T03:04:44;98717.78;;;10.07;50.99
21803;BME280;18591;47.080;22.214;2024-01-06T03:06:46;98717.78;;;10.07;50.87
21803;BME280;18591;47.080;22.214;2024-01-06T03:08:54;98713.44;;;10.04;51.11
21803;BME280;18591;47.080;22.214;2024-01-06T03:10:56;98710.84;;;10.02;51.28
21803;BME280;18591;47.080;22.214;2024-01-06T03:12:59;98708.00;;;10.06;51.29
21803;BME280;18591;47.080;22.214;2024-01-06T03:15:01;98706.50;;;10.00;51.13
21803;BME280;18591;47.080;22.214;2024-01-06T03:17:04;98710.63;;;10.07;51.03
21803;BME280;18591;47.080;22.214;2024-01-06T03:19:06;98706.66;;;10.14;50.91
21803;BME280;18591;47.080;22.214;2024-01-06T03:21:19;98705.75;;;10.15;50.81
21803;BME280;18591;47.080;22.214;2024-01-06T03:23:21;98708.91;;;10.23;50.74
21803;BME280;18591;47.080;22.214;2024-01-06T03:25:24;98701.94;;;10.19;50.40
21803;BME280;18591;47.080;22.214;2024-01-06T03:27:26;98701.94;;;10.19;51.00
21803;BME280;18591;47.080;22.214;2024-01-06T03:29:28;98699.13;;;10.22;50.64
21803;BME280;18591;47.080;22.214;2024-01-06T03:31:30;98691.75;;;10.28;50.63
21803;BME280;18591;47.080;22.214;2024-01-06T03:33:33;98693.66;;;10.24;50.16
21803;BME280;18591;47.080;22.214;2024-01-06T03:35:35;98694.34;;;10.29;50.45
21803;BME280;18591;47.080;22.214;2024-01-06T03:37:38;98697.66;;;10.34;49.86
21803;BME280;18591;47.080;22.214;2024-01-06T03:39:40;98699.25;;;10.38;50.39
21803;BME280;18591;47.080;22.214;2024-01-06T03:41:42;98694.59;;;10.42;50.16
21803;BME280;18591;47.080;22.214;2024-01-06T03:43:45;98693.56;;;10.44;50.11
21803;BME280;18591;47.080;22.214;2024-01-06T03:45:47;98696.88;;;10.50;50.22
21803;BME280;18591;47.080;22.214;2024-01-06T03:47:49;98703.09;;;10.50;50.07
21803;BME280;18591;47.080;22.214;2024-01-06T03:49:52;98699.41;;;10.53;49.66
21803;BME280;18591;47.080;22.214;2024-01-06T03:51:54;98699.22;;;10.56;49.71
21803;BME280;18591;47.080;22.214;2024-01-06T03:53:57;98706.19;;;10.60;50.19
21803;BME280;18591;47.080;22.214;2024-01-06T03:55:59;98702.47;;;10.62;49.70
21803;BME280;18591;47.080;22.214;2024-01-06T03:58:02;98711.25;;;10.66;49.48
21803;BME280;18591;47.080;22.214;2024-01-06T04:00:05;98705.63;;;10.71;49.51
21803;BME280;18591;47.080;22.214;2024-01-06T04:02:08;98714.50;;;10.73;49.61
21803;BME280;18591;47.080;22.214;2024-01-06T04:04:10;98706.25;;;10.76;49.35
21803;BME280;18591;47.080;22.214;2024-01-06T04:06:12;98706.25;;;10.76;49.57
21803;BME280;18591;47.080;22.214;2024-01-06T04:08:15;98716.94;;;10.77;49.58
21803;BME280;18591;47.080;22.214;2024-01-06T04:10:17;98708.88;;;10.77;50.04
21803;BME280;18591;47.080;22.214;2024-01-06T04:12:20;98723.97;;;10.80;49.80
21803;BME280;18591;47.080;22.214;2024-01-06T04:14:22;98720.16;;;10.84;50.38
21803;BME280;18591;47.080;22.214;2024-01-06T04:16:26;98725.53;;;10.84;50.37
21803;BME280;18591;47.080;22.214;2024-01-06T04:18:29;98727.19;;;10.86;50.49
21803;BME280;18591;47.080;22.214;2024-01-06T04:20:32;98726.25;;;10.87;50.64
21803;BME280;18591;47.080;22.214;2024-01-06T04:22:34;98727.13;;;10.88;51.17
21803;BME280;18591;47.080;22.214;2024-01-06T04:24:37;98729.00;;;10.86;51.48
21803;BME280;18591;47.080;22.214;2024-01-06T04:26:39;98736.38;;;10.82;51.34
21803;BME280;18591;47.080;22.214;2024-01-06T04:28:42;98732.97;;;10.79;51.84
21803;BME280;18591;47.080;22.214;2024-01-06T04:30:44;98726.50;;;10.83;52.12
21803;BME280;18591;47.080;22.214;2024-01-06T04:32:46;98735.34;;;10.85;52.30
21803;BME280;18591;47.080;22.214;2024-01-06T04:34:50;98737.25;;;10.83;52.41
21803;BME280;18591;47.080;22.214;2024-01-06T04:36:54;98738.03;;;10.85;52.41
21803;BME280;18591;47.080;22.214;2024-01-06T04:38:56;98735.41;;;10.83;53.00
21803;BME280;18591;47.080;22.214;2024-01-06T04:41:04;98734.38;;;10.86;53.16
21803;BME280;18591;47.080;22.214;2024-01-06T04:43:07;98732.72;;;10.83;53.35
21803;BME280;18591;47.080;22.214;2024-01-06T04:45:10;98738.34;;;10.79;53.47
21803;BME280;18591;47.080;22.214;2024-01-06T04:47:13;98739.22;;;10.79;53.57
21803;BME280;18591;47.080;22.214;2024-01-06T04:49:16;98743.66;;;10.80;53.57
21803;BME280;18591;47.080;22.214;2024-01-06T04:51:19;98738.28;;;10.80;53.87
21803;BME280;18591;47.080;22.214;2024-01-06T04:53:22;98737.88;;;10.88;53.65
21803;BME280;18591;47.080;22.214;2024-01-06T04:55:24;98751.25;;;10.89;53.94
21803;BME280;18591;47.080;22.214;2024-01-06T04:57:27;98752.09;;;10.90;54.45
21803;BME280;18591;47.080;22.214;2024-01-06T04:59:35;98740.16;;;10.96;54.01
21803;BME280;18591;47.080;22.214;2024-01-06T05:01:38;98741.59;;;11.03;53.81
21803;BME280;18591;47.080;22.214;2024-01-06T05:03:41;98742.50;;;11.02;54.20
21803;BME280;18591;47.080;22.214;2024-01-06T05:05:45;98750.50;;;11.03;54.57
21803;BME280;18591;47.080;22.214;2024-01-06T05:07:48;98746.22;;;10.99;54.75
21803;BME280;18591;47.080;22.214;2024-01-06T05:09:51;98743.41;;;11.02;54.99
21803;BME280;18591;47.080;22.214;2024-01-06T05:11:54;98745.13;;;11.03;55.21
21803;BME280;18591;47.080;22.214;2024-01-06T05:13:56;98743.63;;;10.98;54.65
21803;BME280;18591;47.080;22.214;2024-01-06T05:15:59;98747.75;;;11.05;54.80
21803;BME280;18591;47.080;22.214;2024-01-06T05:18:02;98743.31;;;11.04;55.44
21803;BME280;18591;47.080;22.214;2024-01-06T05:20:06;98751.38;;;11.04;55.75
21803;BME280;18591;47.080;22.214;2024-01-06T05:22:09;98747.03;;;11.01;56.25
21803;BME280;18591;47.080;22.214;2024-01-06T05:24:12;98747.81;;;11.03;56.67
21803;BME280;18591;47.080;22.214;2024-01-06T05:26:14;98736.09;;;11.04;56.46
21803;BME280;18591;47.080;22.214;2024-01-06T05:28:17;98742.50;;;11.02;56.21
21803;BME280;18591;47.080;22.214;2024-01-06T05:30:20;98740.53;;;11.05;57.37
21803;BME280;18591;47.080;22.214;2024-01-06T05:32:23;98743.25;;;11.05;57.08
21803;BME280;18591;47.080;22.214;2024-01-06T05:34:26;98740.44;;;11.07;57.36
21803;BME280;18591;47.080;22.214;2024-01-06T05:36:29;98742.63;;;11.00;58.21
21803;BME280;18591;47.080;22.214;2024-01-06T05:38:32;98736.28;;;10.84;60.88
21803;BME280;18591;47.080;22.214;2024-01-06T05:40:35;98744.97;;;10.89;60.05
21803;BME280;18591;47.080;22.214;2024-01-06T05:42:38;98735.75;;;10.95;59.35
21803;BME280;18591;47.080;22.214;2024-01-06T05:44:40;98740.56;;;10.88;59.61
21803;BME280;18591;47.080;22.214;2024-01-06T05:46:43;98742.69;;;10.81;60.44
21803;BME280;18591;47.080;22.214;2024-01-06T05:48:46;98748.06;;;10.81;61.22
21803;BME280;18591;47.080;22.214;2024-01-06T05:50:49;98746.25;;;10.82;60.36
21803;BME280;18591;47.080;22.214;2024-01-06T05:52:52;98747.75;;;10.87;60.80
21803;BME280;18591;47.080;22.214;2024-01-06T05:54:54;98755.81;;;10.87;60.97
21803;BME280;18591;47.080;22.214;2024-01-06T05:56:57;98764.41;;;10.94;60.46
21803;BME280;18591;47.080;22.214;2024-01-06T05:59:00;98759.94;;;10.95;60.70
21803;BME280;18591;47.080;22.214;2024-01-06T06:01:05;98769.03;;;10.92;61.18
21803;BME280;18591;47.080;22.214;2024-01-06T06:03:08;98768.13;;;10.92;61.65
21803;BME280;18591;47.080;22.214;2024-01-06T06:05:11;98774.84;;;10.83;61.42
21803;BME280;18591;47.080;22.214;2024-01-06T06:07:14;98760.56;;;10.82;61.96
21803;BME280;18591;47.080;22.214;2024-01-06T06:09:16;98768.22;;;10.73;63.16
21803;BME280;18591;47.080;22.214;2024-01-06T06:11:22;98765.94;;;10.82;62.37
21803;BME280;18591;47.080;22.214;2024-01-06T06:13:25;98772.78;;;10.71;65.09
21803;BME280;18591;47.080;22.214;2024-01-06T06:15:27;98771.13;;;10.68;65.00
21803;BME280;18591;47.080;22.214;2024-01-06T06:17:31;98769.88;;;10.75;64.75
21803;BME280;18591;47.080;22.214;2024-01-06T06:19:33;98763.63;;;10.75;65.26
21803;BME280;18591;47.080;22.214;2024-01-06T06:21:36;98757.63;;;10.70;64.37
21803;BME280;18591;47.080;22.214;2024-01-06T06:23:39;98755.47;;;10.76;64.37
21803;BME280;18591;47.080;22.214;2024-01-06T06:25:42;98754.63;;;10.76;64.78
21803;BME280;18591;47.080;22.214;2024-01-06T06:27:47;98754.09;;;10.69;64.33
21803;BME280;18591;47.080;22.214;2024-01-06T06:29:50;98748.38;;;10.75;64.77
21803;BME280;18591;47.080;22.214;2024-01-06T06:31:53;98741.53;;;10.87;64.16
21803;BME280;18591;47.080;22.214;2024-01-06T06:33:56;98737.94;;;10.86;63.91
21803;BME280;18591;47.080;22.214;2024-01-06T06:35:59;98731.47;;;10.90;63.77
21803;BME280;18591;47.080;22.214;2024-01-06T06:38:01;98728.53;;;10.95;63.95
21803;BME280;18591;47.080;22.214;2024-01-06T06:40:05;98729.25;;;10.99;64.19
21803;BME280;18591;47.080;22.214;2024-01-06T06:42:08;98719.34;;;10.99;64.17
21803;BME280;18591;47.080;22.214;2024-01-06T06:44:11;98715.91;;;10.97;64.50
21803;BME280;18591;47.080;22.214;2024-01-06T06:46:14;98724.03;;;10.96;64.32
21803;BME280;18591;47.080;22.214;2024-01-06T06:48:16;98717.69;;;10.97;65.14
21803;BME280;18591;47.080;22.214;2024-01-06T06:50:19;98718.03;;;10.90;66.22
21803;BME280;18591;47.080;22.214;2024-01-06T06:52:25;98722.44;;;10.92;65.76
21803;BME280;18591;47.080;22.214;2024-01-06T06:54:28;98726.03;;;10.92;65.25
21803;BME280;18591;47.080;22.214;2024-01-06T06:56:31;98721.06;;;10.84;67.30
21803;BME280;18591;47.080;22.214;2024-01-06T06:58:35;98725.69;;;10.81;68.01
21803;BME280;18591;47.080;22.214;2024-01-06T07:00:38;98723.56;;;10.87;67.02
21803;BME280;18591;47.080;22.214;2024-01-06T07:02:42;98725.47;;;10.85;67.63
21803;BME280;18591;47.080;22.214;2024-01-06T07:04:44;98725.75;;;10.97;66.56
21803;BME280;18591;47.080;22.214;2024-01-06T07:06:47;98720.31;;;10.98;67.74
21803;BME280;18591;47.080;22.214;2024-01-06T07:08:50;98712.63;;;11.08;66.63
21803;BME280;18591;47.080;22.214;2024-01-06T07:10:53;98713.16;;;11.15;66.50
21803;BME280;18591;47.080;22.214;2024-01-06T07:12:56;98720.47;;;11.13;66.28
21803;BME280;18591;47.080;22.214;2024-01-06T07:15:02;98719.97;;;11.04;68.60
21803;BME280;18591;47.080;22.214;2024-01-06T07:17:08;98723.38;;;11.08;67.23
21803;BME280;18591;47.080;22.214;2024-01-06T07:19:14;98721.75;;;11.05;67.76
21803;BME280;18591;47.080;22.214;2024-01-06T07:21:17;98715.81;;;10.99;70.09
21803;BME280;18591;47.080;22.214;2024-01-06T07:23:20;98719.13;;;11.04;70.50
21803;BME280;18591;47.080;22.214;2024-01-06T07:25:23;98706.31;;;11.09;70.22
21803;BME280;18591;47.080;22.214;2024-01-06T07:27:26;98707.94;;;11.11;69.94
21803;BME280;18591;47.080;22.214;2024-01-06T07:29:29;98710.94;;;11.23;68.77
21803;BME280;18591;47.080;22.214;2024-01-06T07:31:32;98713.47;;;11.26;68.08
21803;BME280;18591;47.080;22.214;2024-01-06T07:33:35;98710.53;;;11.30;67.59
21803;BME280;18591;47.080;22.214;2024-01-06T07:35:41;98711.16;;;11.36;68.37
21803;BME280;18591;47.080;22.214;2024-01-06T07:37:45;98704.75;;;11.38;67.48
21803;BME280;18591;47.080;22.214;2024-01-06T07:39:48;98701.16;;;11.38;67.98
21803;BME280;18591;47.080;22.214;2024-01-06T07:41:51;98709.16;;;11.39;67.87
21803;BME280;18591;47.080;22.214;2024-01-06T07:43:54;98705.56;;;11.23;69.21
21803;BME280;18591;47.080;22.214;2024-01-06T07:45:57;98710.94;;;11.23;69.65
21803;BME280;18591;47.080;22.214;2024-01-06T07:48:00;98706.00;;;11.15;70.75
21803;BME280;18591;47.080;22.214;2024-01-06T07:50:04;98701.13;;;11.22;69.46
21803;BME280;18591;47.080;22.214;2024-01-06T07:52:07;98699.16;;;11.25;69.40
21803;BME280;18591;47.080;22.214;2024-01-06T07:54:10;98701.75;;;11.27;68.96
21803;BME280;18591;47.080;22.214;2024-01-06T07:56:14;98710.44;;;11.32;69.40
21803;BME280;18591;47.080;22.214;2024-01-06T07:58:16;98714.41;;;11.25;70.55
21803;BME280;18591;47.080;22.214;2024-01-06T08:00:19;98718.53;;;11.15;71.51
21803;BME280;18591;47.080;22.214;2024-01-06T08:02:22;98718.00;;;11.25;70.26
21803;BME280;18591;47.080;22.214;2024-01-06T08:04:25;98716.88;;;11.12;71.50
21803;BME280;18591;47.080;22.214;2024-01-06T08:06:28;98721.44;;;11.27;69.78
21803;BME280;18591;47.080;22.214;2024-01-06T08:08:31;98718.75;;;11.27;71.11
21803;BME280;18591;47.080;22.214;2024-01-06T08:10:37;98726.56;;;11.32;70.90
21803;BME280;18591;47.080;22.214;2024-01-06T08:12:40;98716.44;;;11.37;70.49
21803;BME280;18591;47.080;22.214;2024-01-06T08:14:43;98729.44;;;11.29;71.88
21803;BME280;18591;47.080;22.214;2024-01-06T08:16:46;98733.53;;;11.36;70.66
21803;BME280;18591;47.080;22.214;2024-01-06T08:18:48;98725.75;;;11.47;69.84
21803;BME280;18591;47.080;22.214;2024-01-06T08:20:52;98729.38;;;11.46;70.04
21803;BME280;18591;47.080;22.214;2024-01-06T08:22:55;98733.91;;;11.46;70.80
21803;BME280;18591;47.080;22.214;2024-01-06T08:24:58;98728.34;;;11.49;69.83
21803;BME280;18591;47.080;22.214;2024-01-06T08:27:01;98728.00;;;11.55;69.95
21803;BME280;18591;47.080;22.214;2024-01-06T08:29:03;98727.63;;;11.45;71.81
21803;BME280;18591;47.080;22.214;2024-01-06T08:31:06;98737.47;;;11.46;71.87
21803;BME280;18591;47.080;22.214;2024-01-06T08:33:09;98727.22;;;11.53;70.51
21803;BME280;18591;47.080;22.214;2024-01-06T08:35:12;98724.09;;;11.61;69.42
21803;BME280;18591;47.080;22.214;2024-01-06T08:37:19;98721.75;;;11.54;70.26
21803;BME280;18591;47.080;22.214;2024-01-06T08:39:24;98721.75;;;11.54;70.09
21803;BME280;18591;47.080;22.214;2024-01-06T08:41:27;98718.38;;;11.51;70.81
21803;BME280;18591;47.080;22.214;2024-01-06T08:43:30;98722.63;;;11.55;70.90
21803;BME280;18591;47.080;22.214;2024-01-06T08:45:33;98712.22;;;11.65;69.94
21803;BME280;18591;47.080;22.214;2024-01-06T08:47:37;98712.59;;;11.59;71.45
21803;BME280;18591;47.080;22.214;2024-01-06T08:49:40;98712.16;;;11.66;70.77
21803;BME280;18591;47.080;22.214;2024-01-06T08:51:46;98715.97;;;11.62;71.11
21803;BME280;18591;47.080;22.214;2024-01-06T08:53:49;98713.44;;;11.75;69.98
21803;BME280;18591;47.080;22.214;2024-01-06T08:55:52;98706.06;;;11.78;69.91
21803;BME280;18591;47.080;22.214;2024-01-06T08:57:55;98707.28;;;11.73;70.75
21803;BME280;18591;47.080;22.214;2024-01-06T08:59:58;98706.34;;;11.74;70.16
21803;BME280;18591;47.080;22.214;2024-01-06T09:02:01;98704.78;;;11.70;70.66
21803;BME280;18591;47.080;22.214;2024-01-06T09:04:04;98706.97;;;11.79;69.98
21803;BME280;18591;47.080;22.214;2024-01-06T09:06:11;98703.47;;;11.77;70.80
21803;BME280;18591;47.080;22.214;2024-01-06T09:08:17;98694.63;;;11.75;70.53
21803;BME280;18591;47.080;22.214;2024-01-06T09:10:19;98694.63;;;11.91;69.99
21803;BME280;18591;47.080;22.214;2024-01-06T09:12:22;98692.91;;;11.90;70.30
21803;BME280;18591;47.080;22.214;2024-01-06T09:14:26;98690.72;;;11.96;70.13
21803;BME280;18591;47.080;22.214;2024-01-06T09:16:29;98688.28;;;11.92;70.50
21803;BME280;18591;47.080;22.214;2024-01-06T09:18:31;98680.06;;;11.95;70.67
21803;BME280;18591;47.080;22.214;2024-01-06T09:20:35;98685.00;;;12.03;70.06
21803;BME280;18591;47.080;22.214;2024-01-06T09:22:40;98682.75;;;11.95;70.38
21803;BME280;18591;47.080;22.214;2024-01-06T09:24:43;98676.06;;;11.86;71.15
21803;BME280;18591;47.080;22.214;2024-01-06T09:26:47;98682.22;;;11.88;71.64
21803;BME280;18591;47.080;22.214;2024-01-06T09:28:50;98673.34;;;12.02;70.02
21803;BME280;18591;47.080;22.214;2024-01-06T09:30:53;98669.72;;;12.03;70.09
21803;BME280;18591;47.080;22.214;2024-01-06T09:32:58;98669.91;;;12.00;70.47
21803;BME280;18591;47.080;22.214;2024-01-06T09:35:01;98665.88;;;12.07;70.08
21803;BME280;18591;47.080;22.214;2024-01-06T09:37:04;98668.50;;;12.09;69.83
21803;BME280;18591;47.080;22.214;2024-01-06T09:39:07;98672.66;;;11.98;70.89
21803;BME280;18591;47.080;22.214;2024-01-06T09:41:10;98675.00;;;12.05;70.45
21803;BME280;18591;47.080;22.214;2024-01-06T09:43:13;98671.19;;;12.09;69.62
21803;BME280;18591;47.080;22.214;2024-01-06T09:45:16;98672.81;;;12.11;69.62
21803;BME280;18591;47.080;22.214;2024-01-06T09:47:25;98666.59;;;12.11;69.28
21803;BME280;18591;47.080;22.214;2024-01-06T09:49:32;98663.09;;;12.09;69.19
21803;BME280;18591;47.080;22.214;2024-01-06T09:51:39;98656.84;;;12.08;69.86
21803;BME280;18591;47.080;22.214;2024-01-06T09:53:49;98655.53;;;11.99;71.18
21803;BME280;18591;47.080;22.214;2024-01-06T09:55:53;98652.16;;;12.12;69.93
21803;BME280;18591;47.080;22.214;2024-01-06T09:58:00;98650.00;;;12.03;71.62
21803;BME280;18591;47.080;22.214;2024-01-06T10:00:03;98645.13;;;12.09;70.78
21803;BME280;18591;47.080;22.214;2024-01-06T10:02:16;98647.81;;;12.09;71.26
21803;BME280;18591;47.080;22.214;2024-01-06T10:04:19;98640.28;;;12.00;72.38
21803;BME280;18591;47.080;22.214;2024-01-06T10:06:25;98637.41;;;12.03;73.21
21803;BME280;18591;47.080;22.214;2024-01-06T10:08:29;98639.13;;;12.04;72.09
21803;BME280;18591;47.080;22.214;2024-01-06T10:10:35;98636.00;;;12.12;71.59
21803;BME280;18591;47.080;22.214;2024-01-06T10:12:38;98629.22;;;12.20;70.91
21803;BME280;18591;47.080;22.214;2024-01-06T10:14:44;98631.53;;;12.27;70.10
21803;BME280;18591;47.080;22.214;2024-01-06T10:16:46;98634.16;;;12.28;69.98
21803;BME280;18591;47.080;22.214;2024-01-06T10:18:52;98631.53;;;12.27;70.14
21803;BME280;18591;47.080;22.214;2024-01-06T10:20:56;98621.63;;;12.27;70.09
21803;BME280;18591;47.080;22.214;2024-01-06T10:23:07;98623.06;;;12.33;70.02
21803;BME280;18591;47.080;22.214;2024-01-06T10:25:11;98630.88;;;12.37;69.54
21803;BME280;18591;47.080;22.214;2024-01-06T10:27:13;98619.34;;;12.35;69.99
21803;BME280;18591;47.080;22.214;2024-01-06T10:29:16;98621.69;;;12.41;69.34
21803;BME280;18591;47.080;22.214;2024-01-06T10:31:19;98620.81;;;12.41;69.93
21803;BME280;18591;47.080;22.214;2024-01-06T10:33:23;98614.97;;;12.49;69.11
21803;BME280;18591;47.080;22.214;2024-01-06T10:35:27;98619.47;;;12.48;69.62
21803;BME280;18591;47.080;22.214;2024-01-06T10:37:30;98611.28;;;12.50;69.95
21803;BME280;18591;47.080;22.214;2024-01-06T10:39:33;98609.78;;;12.60;69.64
21803;BME280;18591;47.080;22.214;2024-01-06T10:41:41;98599.66;;;12.63;69.68
21803;BME280;18591;47.080;22.214;2024-01-06T10:43:46;98596.63;;;12.70;69.13
21803;BME280;18591;47.080;22.214;2024-01-06T10:45:51;98589.31;;;12.72;69.32